sensor_id;sensor_type;location;lat;lon;timestamp;P1;durP1;ratioP1;P2;durP2;ratioP2
17842;SDS011;69286;48.222;16.332;2023-09-07T00:00:44;5.13;;;4.10;;
17842;SDS011;69286;48.222;16.332;2023-09-07T00:03:12;5.43;;;4.53;;
17842;SDS011;69286;48.222;16.332;2023-09-07T00:05:39;5.10;;;4.20;;
17842;SDS011;69286;48.222;16.332;2023-09-07T00:08:08;8.47;;;4.43;;
17842;SDS011;69286;48.222;16.332;2023-09-07T00:10:35;5.80;;;4.47;;
17842;SDS011;69286;48.222;16.332;2023-09-07T00:13:03;7.43;;;4.30;;
17842;SDS011;69286;48.222;16.332;2023-09-07T00:15:30;6.73;;;3.73;;
17842;SDS011;69286;48.222;16.332;2023-09-07T00:18:02;5.43;;;4.17;;
17842;SDS011;69286;48.222;16.332;2023-09-07T00:20:30;7.27;;;4.20;;
17842;SDS011;69286;48.222;16.332;2023-09-07T00:22:58;5.40;;;3.93;;
17842;SDS011;69286;48.222;16.332;2023-09-07T00:25:27;6.83;;;4.00;;
17842;SDS011;69286;48.222;16.332;2023-09-07T00:27:54;4.60;;;4.00;;
17842;SDS011;69286;48.222;16.332;2023-09-07T00:30:21;6.43;;;3.90;;
17842;SDS011;69286;48.222;16.332;2023-09-07T00:32:48;8.07;;;4.40;;
17842;SDS011;69286;48.222;16.332;2023-09-07T00:35:15;5.33;;;4.03;;
17842;SDS011;69286;48.222;16.332;2023-09-07T00:37:42;4.70;;;4.20;;
17842;SDS011;69286;48.222;16.332;2023-09-07T00:40:09;6.43;;;4.13;;
17842;SDS011;69286;48.222;16.332;2023-09-07T00:42:38;8.20;;;4.00;;
17842;SDS011;69286;48.222;16.332;2023-09-07T00:45:05;8.13;;;4.50;;
17842;SDS011;69286;48.222;16.332;2023-09-07T00:47:33;7.07;;;4.50;;
17842;SDS011;69286;48.222;16.332;2023-09-07T00:50:02;6.13;;;4.50;;
17842;SDS011;69286;48.222;16.332;2023-09-07T00:52:29;5.87;;;4.30;;
17842;SDS011;69286;48.222;16.332;2023-09-07T00:54:57;10.53;;;4.60;;
17842;SDS011;69286;48.222;16.332;2023-09-07T00:57:24;6.93;;;4.80;;
17842;SDS011;69286;48.222;16.332;2023-09-07T00:59:53;7.07;;;4.43;;
17842;SDS011;69286;48.222;16.332;2023-09-07T01:02:20;6.17;;;4.43;;
17842;SDS011;69286;48.222;16.332;2023-09-07T01:04:47;9.20;;;4.40;;
17842;SDS011;69286;48.222;16.332;2023-09-07T01:07:15;5.77;;;4.67;;
17842;SDS011;69286;48.222;16.332;2023-09-07T01:09:45;6.53;;;4.13;;
17842;SDS011;69286;48.222;16.332;2023-09-07T01:12:16;5.20;;;4.23;;
17842;SDS011;69286;48.222;16.332;2023-09-07T01:14:43;7.93;;;4.50;;
17842;SDS011;69286;48.222;16.332;2023-09-07T01:17:12;8.07;;;4.67;;
17842;SDS011;69286;48.222;16.332;2023-09-07T01:19:40;5.03;;;4.23;;
17842;SDS011;69286;48.222;16.332;2023-09-07T01:22:08;5.17;;;4.13;;
17842;SDS011;69286;48.222;16.332;2023-09-07T01:24:37;7.63;;;4.30;;
17842;SDS011;69286;48.222;16.332;2023-09-07T01:27:05;5.17;;;4.17;;
17842;SDS011;69286;48.222;16.332;2023-09-07T01:29:32;4.43;;;3.80;;
17842;SDS011;69286;48.222;16.332;2023-09-07T01:31:59;6.53;;;4.33;;
17842;SDS011;69286;48.222;16.332;2023-09-07T01:34:26;5.57;;;4.00;;
17842;SDS011;69286;48.222;16.332;2023-09-07T01:36:53;7.37;;;4.10;;
17842;SDS011;69286;48.222;16.332;2023-09-07T01:39:21;5.43;;;4.40;;
17842;SDS011;69286;48.222;16.332;2023-09-07T01:41:48;7.40;;;4.30;;
17842;SDS011;69286;48.222;16.332;2023-09-07T01:44:15;6.13;;;4.40;;
17842;SDS011;69286;48.222;16.332;2023-09-07T01:46:42;6.10;;;4.23;;
17842;SDS011;69286;48.222;16.332;2023-09-07T01:49:09;7.80;;;4.27;;
17842;SDS011;69286;48.222;16.332;2023-09-07T01:51:36;7.53;;;4.37;;
17842;SDS011;69286;48.222;16.332;2023-09-07T01:54:03;5.33;;;3.80;;
17842;SDS011;69286;48.222;16.332;2023-09-07T01:56:32;9.10;;;4.40;;
17842;SDS011;69286;48.222;16.332;2023-09-07T01:58:59;5.57;;;3.87;;
17842;SDS011;69286;48.222;16.332;2023-09-07T02:01:27;7.13;;;3.93;;
17842;SDS011;69286;48.222;16.332;2023-09-07T02:03:55;5.90;;;4.13;;
17842;SDS011;69286;48.222;16.332;2023-09-07T02:06:23;8.57;;;4.40;;
17842;SDS011;69286;48.222;16.332;2023-09-07T02:08:50;6.17;;;4.63;;
17842;SDS011;69286;48.222;16.332;2023-09-07T02:11:17;6.13;;;4.63;;
17842;SDS011;69286;48.222;16.332;2023-09-07T02:13:46;6.73;;;4.60;;
17842;SDS011;69286;48.222;16.332;2023-09-07T02:16:13;8.47;;;5.00;;
17842;SDS011;69286;48.222;16.332;2023-09-07T02:18:41;8.23;;;4.37;;
17842;SDS011;69286;48.222;16.332;2023-09-07T02:21:11;6.13;;;4.60;;
17842;SDS011;69286;48.222;16.332;2023-09-07T02:23:38;7.67;;;5.37;;
17842;SDS011;69286;48.222;16.332;2023-09-07T02:26:06;8.80;;;4.73;;
17842;SDS011;69286;48.222;16.332;2023-09-07T02:28:33;7.17;;;4.80;;
17842;SDS011;69286;48.222;16.332;2023-09-07T02:31:03;6.20;;;4.47;;
17842;SDS011;69286;48.222;16.332;2023-09-07T02:33:31;5.83;;;4.40;;
17842;SDS011;69286;48.222;16.332;2023-09-07T02:35:58;8.17;;;5.30;;
17842;SDS011;69286;48.222;16.332;2023-09-07T02:38:25;6.60;;;5.50;;
17842;SDS011;69286;48.222;16.332;2023-09-07T02:40:52;10.63;;;6.47;;
17842;SDS011;69286;48.222;16.332;2023-09-07T02:43:20;8.73;;;6.00;;
17842;SDS011;69286;48.222;16.332;2023-09-07T02:45:48;6.97;;;5.20;;
17842;SDS011;69286;48.222;16.332;2023-09-07T02:48:17;9.40;;;4.93;;
17842;SDS011;69286;48.222;16.332;2023-09-07T02:50:44;6.20;;;4.97;;
17842;SDS011;69286;48.222;16.332;2023-09-07T02:53:14;9.73;;;4.37;;
17842;SDS011;69286;48.222;16.332;2023-09-07T02:55:40;7.33;;;5.70;;
17842;SDS011;69286;48.222;16.332;2023-09-07T02:58:07;9.97;;;5.67;;
17842;SDS011;69286;48.222;16.332;2023-09-07T03:00:34;10.07;;;5.07;;
17842;SDS011;69286;48.222;16.332;2023-09-07T03:03:07;9.07;;;5.33;;
17842;SDS011;69286;48.222;16.332;2023-09-07T03:05:35;5.30;;;4.60;;
17842;SDS011;69286;48.222;16.332;2023-09-07T03:08:02;7.70;;;4.93;;
17842;SDS011;69286;48.222;16.332;2023-09-07T03:10:30;9.17;;;4.97;;
17842;SDS011;69286;48.222;16.332;2023-09-07T03:12:57;6.57;;;5.10;;
17842;SDS011;69286;48.222;16.332;2023-09-07T03:15:24;6.33;;;4.70;;
17842;SDS011;69286;48.222;16.332;2023-09-07T03:17:51;6.77;;;5.07;;
17842;SDS011;69286;48.222;16.332;2023-09-07T03:20:18;6.73;;;5.23;;
17842;SDS011;69286;48.222;16.332;2023-09-07T03:22:47;6.17;;;4.90;;
17842;SDS011;69286;48.222;16.332;2023-09-07T03:25:14;6.40;;;4.90;;
17842;SDS011;69286;48.222;16.332;2023-09-07T03:27:41;8.57;;;5.13;;
17842;SDS011;69286;48.222;16.332;2023-09-07T03:30:08;6.67;;;5.30;;
17842;SDS011;69286;48.222;16.332;2023-09-07T03:32:35;10.30;;;5.30;;
17842;SDS011;69286;48.222;16.332;2023-09-07T03:35:03;7.87;;;5.17;;
17842;SDS011;69286;48.222;16.332;2023-09-07T03:37:32;6.90;;;4.87;;
17842;SDS011;69286;48.222;16.332;2023-09-07T03:40:00;10.17;;;5.70;;
17842;SDS011;69286;48.222;16.332;2023-09-07T03:42:30;5.70;;;5.03;;
17842;SDS011;69286;48.222;16.332;2023-09-07T03:44:57;8.13;;;5.23;;
17842;SDS011;69286;48.222;16.332;2023-09-07T03:47:24;6.27;;;5.13;;
17842;SDS011;69286;48.222;16.332;2023-09-07T03:49:54;10.00;;;5.17;;
17842;SDS011;69286;48.222;16.332;2023-09-07T03:52:21;8.47;;;5.13;;
17842;SDS011;69286;48.222;16.332;2023-09-07T03:54:49;7.80;;;5.73;;
17842;SDS011;69286;48.222;16.332;2023-09-07T03:57:19;6.83;;;5.60;;
17842;SDS011;69286;48.222;16.332;2023-09-07T03:59:46;8.03;;;5.30;;
17842;SDS011;69286;48.222;16.332;2023-09-07T04:02:14;5.67;;;4.90;;
17842;SDS011;69286;48.222;16.332;2023-09-07T04:04:42;10.33;;;5.60;;
17842;SDS011;69286;48.222;16.332;2023-09-07T04:07:09;7.53;;;5.20;;
17842;SDS011;69286;48.222;16.332;2023-09-07T04:09:36;9.90;;;5.63;;
17842;SDS011;69286;48.222;16.332;2023-09-07T04:12:03;8.77;;;4.97;;
17842;SDS011;69286;48.222;16.332;2023-09-07T04:14:33;9.13;;;5.03;;
17842;SDS011;69286;48.222;16.332;2023-09-07T04:17:00;7.53;;;5.10;;
17842;SDS011;69286;48.222;16.332;2023-09-07T04:19:27;6.77;;;5.43;;
17842;SDS011;69286;48.222;16.332;2023-09-07T04:21:54;6.40;;;4.77;;
17842;SDS011;69286;48.222;16.332;2023-09-07T04:24:21;11.00;;;5.63;;
17842;SDS011;69286;48.222;16.332;2023-09-07T04:26:48;6.17;;;5.00;;
17842;SDS011;69286;48.222;16.332;2023-09-07T04:29:15;7.53;;;5.13;;
17842;SDS011;69286;48.222;16.332;2023-09-07T04:31:43;10.20;;;4.80;;
17842;SDS011;69286;48.222;16.332;2023-09-07T04:34:11;7.77;;;5.33;;
17842;SDS011;69286;48.222;16.332;2023-09-07T04:36:38;7.33;;;5.27;;
17842;SDS011;69286;48.222;16.332;2023-09-07T04:39:04;9.00;;;5.50;;
17842;SDS011;69286;48.222;16.332;2023-09-07T04:41:32;8.40;;;4.93;;
17842;SDS011;69286;48.222;16.332;2023-09-07T04:43:59;7.80;;;5.17;;
17842;SDS011;69286;48.222;16.332;2023-09-07T04:46:26;10.77;;;5.57;;
17842;SDS011;69286;48.222;16.332;2023-09-07T04:48:54;6.73;;;5.60;;
17842;SDS011;69286;48.222;16.332;2023-09-07T04:51:21;8.47;;;5.90;;
17842;SDS011;69286;48.222;16.332;2023-09-07T04:53:49;8.77;;;5.50;;
17842;SDS011;69286;48.222;16.332;2023-09-07T04:56:16;8.67;;;5.33;;
17842;SDS011;69286;48.222;16.332;2023-09-07T04:58:43;9.17;;;5.60;;
17842;SDS011;69286;48.222;16.332;2023-09-07T05:01:11;8.17;;;5.50;;
17842;SDS011;69286;48.222;16.332;2023-09-07T05:03:38;10.47;;;6.00;;
17842;SDS011;69286;48.222;16.332;2023-09-07T05:06:07;7.13;;;4.97;;
17842;SDS011;69286;48.222;16.332;2023-09-07T05:08:34;7.33;;;5.47;;
17842;SDS011;69286;48.222;16.332;2023-09-07T05:11:02;12.97;;;5.47;;
17842;SDS011;69286;48.222;16.332;2023-09-07T05:13:30;8.63;;;4.93;;
17842;SDS011;69286;48.222;16.332;2023-09-07T05:15:58;11.27;;;5.13;;
17842;SDS011;69286;48.222;16.332;2023-09-07T05:18:26;6.33;;;5.00;;
17842;SDS011;69286;48.222;16.332;2023-09-07T05:20:53;7.27;;;4.87;;
17842;SDS011;69286;48.222;16.332;2023-09-07T05:23:22;11.80;;;5.73;;
17842;SDS011;69286;48.222;16.332;2023-09-07T05:25:51;8.67;;;5.80;;
17842;SDS011;69286;48.222;16.332;2023-09-07T05:28:20;7.33;;;5.27;;
17842;SDS011;69286;48.222;16.332;2023-09-07T05:30:48;6.67;;;5.17;;
17842;SDS011;69286;48.222;16.332;2023-09-07T05:33:16;8.33;;;4.47;;
17842;SDS011;69286;48.222;16.332;2023-09-07T05:35:44;9.17;;;5.47;;
17842;SDS011;69286;48.222;16.332;2023-09-07T05:38:11;6.37;;;5.40;;
17842;SDS011;69286;48.222;16.332;2023-09-07T05:40:41;8.37;;;5.53;;
17842;SDS011;69286;48.222;16.332;2023-09-07T05:43:10;9.50;;;5.07;;
17842;SDS011;69286;48.222;16.332;2023-09-07T05:45:39;11.47;;;5.40;;
17842;SDS011;69286;48.222;16.332;2023-09-07T05:48:07;8.10;;;5.93;;
17842;SDS011;69286;48.222;16.332;2023-09-07T05:50:35;12.00;;;5.53;;
17842;SDS011;69286;48.222;16.332;2023-09-07T05:53:03;10.57;;;7.07;;
17842;SDS011;69286;48.222;16.332;2023-09-07T05:55:30;11.77;;;6.50;;
17842;SDS011;69286;48.222;16.332;2023-09-07T05:57:59;9.43;;;5.90;;
17842;SDS011;69286;48.222;16.332;2023-09-07T06:00:30;15.13;;;6.03;;
17842;SDS011;69286;48.222;16.332;2023-09-07T06:02:57;9.17;;;6.53;;
17842;SDS011;69286;48.222;16.332;2023-09-07T06:05:24;13.73;;;7.37;;
17842;SDS011;69286;48.222;16.332;2023-09-07T06:07:51;15.17;;;6.80;;
17842;SDS011;69286;48.222;16.332;2023-09-07T06:10:18;11.50;;;5.63;;
17842;SDS011;69286;48.222;16.332;2023-09-07T06:12:45;12.77;;;8.03;;
17842;SDS011;69286;48.222;16.332;2023-09-07T06:15:14;10.03;;;5.50;;
17842;SDS011;69286;48.222;16.332;2023-09-07T06:17:41;17.58;;;7.10;;
17842;SDS011;69286;48.222;16.332;2023-09-07T06:20:10;12.43;;;5.80;;
17842;SDS011;69286;48.222;16.332;2023-09-07T06:22:38;11.95;;;6.22;;
17842;SDS011;69286;48.222;16.332;2023-09-07T06:25:05;13.18;;;6.47;;
17842;SDS011;69286;48.222;16.332;2023-09-07T06:27:32;10.93;;;5.90;;
17842;SDS011;69286;48.222;16.332;2023-09-07T06:29:59;9.40;;;5.85;;
17842;SDS011;69286;48.222;16.332;2023-09-07T06:32:27;10.73;;;5.50;;
17842;SDS011;69286;48.222;16.332;2023-09-07T06:34:54;9.90;;;5.88;;
17842;SDS011;69286;48.222;16.332;2023-09-07T06:37:21;15.93;;;5.50;;
17842;SDS011;69286;48.222;16.332;2023-09-07T06:39:49;7.65;;;5.68;;
17842;SDS011;69286;48.222;16.332;2023-09-07T06:42:16;12.13;;;5.90;;
17842;SDS011;69286;48.222;16.332;2023-09-07T06:44:44;9.18;;;5.72;;
17842;SDS011;69286;48.222;16.332;2023-09-07T06:47:11;12.52;;;5.68;;
17842;SDS011;69286;48.222;16.332;2023-09-07T06:49:39;11.85;;;5.72;;
17842;SDS011;69286;48.222;16.332;2023-09-07T06:52:06;14.55;;;5.78;;
17842;SDS011;69286;48.222;16.332;2023-09-07T06:54:33;10.27;;;5.43;;
17842;SDS011;69286;48.222;16.332;2023-09-07T06:57:01;8.40;;;4.75;;
17842;SDS011;69286;48.222;16.332;2023-09-07T06:59:29;11.18;;;5.28;;
17842;SDS011;69286;48.222;16.332;2023-09-07T07:01:56;7.00;;;4.85;;
17842;SDS011;69286;48.222;16.332;2023-09-07T07:04:25;8.82;;;5.50;;
17842;SDS011;69286;48.222;16.332;2023-09-07T07:06:53;15.73;;;5.65;;
17842;SDS011;69286;48.222;16.332;2023-09-07T07:09:20;13.82;;;5.43;;
17842;SDS011;69286;48.222;16.332;2023-09-07T07:11:47;10.48;;;5.65;;
17842;SDS011;69286;48.222;16.332;2023-09-07T07:14:15;7.88;;;4.85;;
17842;SDS011;69286;48.222;16.332;2023-09-07T07:16:42;7.60;;;5.10;;
17842;SDS011;69286;48.222;16.332;2023-09-07T07:19:09;6.88;;;5.20;;
17842;SDS011;69286;48.222;16.332;2023-09-07T07:21:36;8.52;;;4.95;;
17842;SDS011;69286;48.222;16.332;2023-09-07T07:24:04;7.88;;;4.72;;
17842;SDS011;69286;48.222;16.332;2023-09-07T07:26:32;6.78;;;4.57;;
17842;SDS011;69286;48.222;16.332;2023-09-07T07:28:59;16.10;;;5.50;;
17842;SDS011;69286;48.222;16.332;2023-09-07T07:31:28;7.10;;;5.13;;
17842;SDS011;69286;48.222;16.332;2023-09-07T07:33:55;15.93;;;5.20;;
17842;SDS011;69286;48.222;16.332;2023-09-07T07:36:22;8.68;;;5.15;;
17842;SDS011;69286;48.222;16.332;2023-09-07T07:38:49;13.40;;;5.30;;
17842;SDS011;69286;48.222;16.332;2023-09-07T07:41:17;6.45;;;4.93;;
17842;SDS011;69286;48.222;16.332;2023-09-07T07:43:44;12.45;;;5.40;;
17842;SDS011;69286;48.222;16.332;2023-09-07T07:46:11;8.60;;;5.30;;
17842;SDS011;69286;48.222;16.332;2023-09-07T07:48:40;8.52;;;5.82;;
17842;SDS011;69286;48.222;16.332;2023-09-07T07:51:07;8.90;;;5.88;;
17842;SDS011;69286;48.222;16.332;2023-09-07T07:53:35;12.35;;;5.60;;
17842;SDS011;69286;48.222;16.332;2023-09-07T07:56:02;13.57;;;6.10;;
17842;SDS011;69286;48.222;16.332;2023-09-07T07:58:30;9.10;;;6.47;;
17842;SDS011;69286;48.222;16.332;2023-09-07T08:00:57;10.85;;;5.97;;
17842;SDS011;69286;48.222;16.332;2023-09-07T08:03:24;13.55;;;6.88;;
17842;SDS011;69286;48.222;16.332;2023-09-07T08:05:51;12.45;;;6.85;;
17842;SDS011;69286;48.222;16.332;2023-09-07T08:08:18;15.93;;;7.40;;
17842;SDS011;69286;48.222;16.332;2023-09-07T08:10:45;11.23;;;7.65;;
17842;SDS011;69286;48.222;16.332;2023-09-07T08:13:12;12.18;;;6.65;;
17842;SDS011;69286;48.222;16.332;2023-09-07T08:15:41;14.30;;;6.90;;
17842;SDS011;69286;48.222;16.332;2023-09-07T08:18:08;11.55;;;6.68;;
17842;SDS011;69286;48.222;16.332;2023-09-07T08:20:35;13.25;;;6.78;;
17842;SDS011;69286;48.222;16.332;2023-09-07T08:23:05;8.00;;;6.68;;
17842;SDS011;69286;48.222;16.332;2023-09-07T08:25:34;11.10;;;6.50;;
17842;SDS011;69286;48.222;16.332;2023-09-07T08:28:01;12.00;;;6.10;;
17842;SDS011;69286;48.222;16.332;2023-09-07T08:30:30;17.33;;;7.75;;
17842;SDS011;69286;48.222;16.332;2023-09-07T08:32:58;12.07;;;7.15;;
17842;SDS011;69286;48.222;16.332;2023-09-07T08:35:27;16.90;;;7.15;;
17842;SDS011;69286;48.222;16.332;2023-09-07T08:37:55;16.33;;;5.90;;
17842;SDS011;69286;48.222;16.332;2023-09-07T08:40:23;14.60;;;6.53;;
17842;SDS011;69286;48.222;16.332;2023-09-07T08:42:52;8.50;;;6.22;;
17842;SDS011;69286;48.222;16.332;2023-09-07T08:45:19;8.45;;;6.07;;
17842;SDS011;69286;48.222;16.332;2023-09-07T08:47:52;12.50;;;5.57;;
17842;SDS011;69286;48.222;16.332;2023-09-07T08:50:22;11.48;;;7.00;;
17842;SDS011;69286;48.222;16.332;2023-09-07T08:52:50;10.73;;;6.68;;
17842;SDS011;69286;48.222;16.332;2023-09-07T08:55:19;11.63;;;6.65;;
17842;SDS011;69286;48.222;16.332;2023-09-07T08:57:47;17.60;;;5.82;;
17842;SDS011;69286;48.222;16.332;2023-09-07T09:00:15;11.80;;;5.95;;
17842;SDS011;69286;48.222;16.332;2023-09-07T09:02:46;6.45;;;5.60;;
17842;SDS011;69286;48.222;16.332;2023-09-07T09:05:13;10.68;;;5.63;;
17842;SDS011;69286;48.222;16.332;2023-09-07T09:07:44;10.55;;;6.03;;
17842;SDS011;69286;48.222;16.332;2023-09-07T09:10:11;11.15;;;6.50;;
17842;SDS011;69286;48.222;16.332;2023-09-07T09:12:44;10.98;;;6.10;;
17842;SDS011;69286;48.222;16.332;2023-09-07T09:15:12;10.30;;;5.90;;
17842;SDS011;69286;48.222;16.332;2023-09-07T09:17:38;7.15;;;5.38;;
17842;SDS011;69286;48.222;16.332;2023-09-07T09:20:18;6.85;;;5.43;;
17842;SDS011;69286;48.222;16.332;2023-09-07T09:22:49;6.40;;;5.18;;
17842;SDS011;69286;48.222;16.332;2023-09-07T09:25:17;11.02;;;5.53;;
17842;SDS011;69286;48.222;16.332;2023-09-07T09:27:44;12.88;;;5.50;;
17842;SDS011;69286;48.222;16.332;2023-09-07T09:30:11;8.48;;;5.78;;
17842;SDS011;69286;48.222;16.332;2023-09-07T09:32:40;12.13;;;5.50;;
17842;SDS011;69286;48.222;16.332;2023-09-07T09:35:07;7.55;;;4.90;;
17842;SDS011;69286;48.222;16.332;2023-09-07T09:37:42;14.43;;;5.25;;
17842;SDS011;69286;48.222;16.332;2023-09-07T09:40:13;13.30;;;5.57;;
17842;SDS011;69286;48.222;16.332;2023-09-07T09:42:41;9.77;;;5.35;;
17842;SDS011;69286;48.222;16.332;2023-09-07T09:45:09;9.98;;;4.90;;
17842;SDS011;69286;48.222;16.332;2023-09-07T09:47:38;11.48;;;4.40;;
17842;SDS011;69286;48.222;16.332;2023-09-07T09:50:06;9.07;;;5.07;;
17842;SDS011;69286;48.222;16.332;2023-09-07T09:52:36;8.90;;;4.32;;
17842;SDS011;69286;48.222;16.332;2023-09-07T09:55:04;10.25;;;4.13;;
17842;SDS011;69286;48.222;16.332;2023-09-07T09:57:35;15.60;;;4.22;;
17842;SDS011;69286;48.222;16.332;2023-09-07T10:00:03;7.97;;;4.28;;
17842;SDS011;69286;48.222;16.332;2023-09-07T10:02:51;13.55;;;4.13;;
17842;SDS011;69286;48.222;16.332;2023-09-07T10:05:24;4.32;;;3.58;;
17842;SDS011;69286;48.222;16.332;2023-09-07T10:07:52;8.45;;;4.30;;
17842;SDS011;69286;48.222;16.332;2023-09-07T10:10:19;11.60;;;3.97;;
17842;SDS011;69286;48.222;16.332;2023-09-07T10:12:52;4.55;;;3.30;;
17842;SDS011;69286;48.222;16.332;2023-09-07T10:15:20;6.25;;;3.75;;
17842;SDS011;69286;48.222;16.332;2023-09-07T10:17:55;6.43;;;3.80;;
17842;SDS011;69286;48.222;16.332;2023-09-07T10:20:51;5.88;;;3.70;;
17842;SDS011;69286;48.222;16.332;2023-09-07T10:23:20;5.13;;;3.65;;
17842;SDS011;69286;48.222;16.332;2023-09-07T10:25:49;5.35;;;3.58;;
17842;SDS011;69286;48.222;16.332;2023-09-07T10:28:22;4.20;;;3.40;;
17842;SDS011;69286;48.222;16.332;2023-09-07T10:30:59;5.80;;;3.75;;
17842;SDS011;69286;48.222;16.332;2023-09-07T10:33:28;8.07;;;3.95;;
17842;SDS011;69286;48.222;16.332;2023-09-07T10:35:55;5.95;;;3.42;;
17842;SDS011;69286;48.222;16.332;2023-09-07T10:38:23;7.72;;;3.80;;
17842;SDS011;69286;48.222;16.332;2023-09-07T10:40:54;4.20;;;3.22;;
17842;SDS011;69286;48.222;16.332;2023-09-07T10:43:24;6.78;;;3.22;;
17842;SDS011;69286;48.222;16.332;2023-09-07T10:45:51;3.88;;;3.38;;
17842;SDS011;69286;48.222;16.332;2023-09-07T10:48:19;7.28;;;3.20;;
17842;SDS011;69286;48.222;16.332;2023-09-07T10:50:46;4.95;;;3.70;;
17842;SDS011;69286;48.222;16.332;2023-09-07T10:53:14;7.15;;;3.50;;
17842;SDS011;69286;48.222;16.332;2023-09-07T10:55:50;5.95;;;3.40;;
17842;SDS011;69286;48.222;16.332;2023-09-07T10:58:24;6.15;;;3.25;;
17842;SDS011;69286;48.222;16.332;2023-09-07T11:00:52;5.60;;;3.67;;
17842;SDS011;69286;48.222;16.332;2023-09-07T11:03:19;6.93;;;3.40;;
17842;SDS011;69286;48.222;16.332;2023-09-07T11:05:46;11.27;;;3.33;;
17842;SDS011;69286;48.222;16.332;2023-09-07T11:08:13;4.88;;;2.95;;
17842;SDS011;69286;48.222;16.332;2023-09-07T11:10:41;7.63;;;3.38;;
17842;SDS011;69286;48.222;16.332;2023-09-07T11:13:09;5.05;;;2.60;;
17842;SDS011;69286;48.222;16.332;2023-09-07T11:15:37;3.60;;;3.00;;
17842;SDS011;69286;48.222;16.332;2023-09-07T11:18:04;6.85;;;3.47;;
17842;SDS011;69286;48.222;16.332;2023-09-07T11:20:32;6.15;;;3.10;;
17842;SDS011;69286;48.222;16.332;2023-09-07T11:22:59;6.13;;;2.90;;
17842;SDS011;69286;48.222;16.332;2023-09-07T11:25:26;4.78;;;2.88;;
17842;SDS011;69286;48.222;16.332;2023-09-07T11:27:59;4.75;;;3.35;;
17842;SDS011;69286;48.222;16.332;2023-09-07T11:30:28;5.00;;;3.38;;
17842;SDS011;69286;48.222;16.332;2023-09-07T11:33:01;9.40;;;3.72;;
17842;SDS011;69286;48.222;16.332;2023-09-07T11:35:30;3.58;;;3.00;;
17842;SDS011;69286;48.222;16.332;2023-09-07T11:37:59;11.23;;;3.35;;
17842;SDS011;69286;48.222;16.332;2023-09-07T11:40:28;4.18;;;3.22;;
17842;SDS011;69286;48.222;16.332;2023-09-07T11:42:56;5.30;;;3.45;;
17842;SDS011;69286;48.222;16.332;2023-09-07T11:45:23;4.95;;;3.53;;
17842;SDS011;69286;48.222;16.332;2023-09-07T11:47:51;6.72;;;3.22;;
17842;SDS011;69286;48.222;16.332;2023-09-07T11:50:19;7.65;;;3.40;;
17842;SDS011;69286;48.222;16.332;2023-09-07T11:52:49;7.10;;;3.47;;
17842;SDS011;69286;48.222;16.332;2023-09-07T11:55:17;4.38;;;3.17;;
17842;SDS011;69286;48.222;16.332;2023-09-07T11:57:44;5.00;;;3.45;;
17842;SDS011;69286;48.222;16.332;2023-09-07T12:00:12;6.57;;;3.25;;
17842;SDS011;69286;48.222;16.332;2023-09-07T12:02:40;5.18;;;3.10;;
17842;SDS011;69286;48.222;16.332;2023-09-07T12:05:07;4.60;;;3.17;;
17842;SDS011;69286;48.222;16.332;2023-09-07T12:07:36;5.32;;;3.25;;
17842;SDS011;69286;48.222;16.332;2023-09-07T12:10:03;4.78;;;3.50;;
17842;SDS011;69286;48.222;16.332;2023-09-07T12:12:31;6.75;;;3.83;;
17842;SDS011;69286;48.222;16.332;2023-09-07T12:14:58;5.45;;;3.30;;
17842;SDS011;69286;48.222;16.332;2023-09-07T12:17:25;4.65;;;3.35;;
17842;SDS011;69286;48.222;16.332;2023-09-07T12:19:52;5.68;;;3.55;;
17842;SDS011;69286;48.222;16.332;2023-09-07T12:22:19;15.75;;;3.70;;
17842;SDS011;69286;48.222;16.332;2023-09-07T12:24:47;7.82;;;3.70;;
17842;SDS011;69286;48.222;16.332;2023-09-07T12:27:15;8.55;;;3.38;;
17842;SDS011;69286;48.222;16.332;2023-09-07T12:29:42;6.40;;;3.53;;
17842;SDS011;69286;48.222;16.332;2023-09-07T12:32:09;6.53;;;3.55;;
17842;SDS011;69286;48.222;16.332;2023-09-07T12:34:36;3.70;;;3.10;;
17842;SDS011;69286;48.222;16.332;2023-09-07T12:37:04;8.80;;;3.72;;
17842;SDS011;69286;48.222;16.332;2023-09-07T12:39:31;7.20;;;3.40;;
17842;SDS011;69286;48.222;16.332;2023-09-07T12:41:59;9.43;;;4.10;;
17842;SDS011;69286;48.222;16.332;2023-09-07T12:44:26;8.65;;;3.55;;
17842;SDS011;69286;48.222;16.332;2023-09-07T12:46:53;7.10;;;3.15;;
17842;SDS011;69286;48.222;16.332;2023-09-07T12:49:21;6.05;;;3.40;;
17842;SDS011;69286;48.222;16.332;2023-09-07T12:51:47;5.85;;;3.40;;
17842;SDS011;69286;48.222;16.332;2023-09-07T12:54:15;3.85;;;3.10;;
17842;SDS011;69286;48.222;16.332;2023-09-07T12:56:42;8.40;;;3.67;;
17842;SDS011;69286;48.222;16.332;2023-09-07T12:59:11;10.23;;;3.53;;
17842;SDS011;69286;48.222;16.332;2023-09-07T13:01:38;5.68;;;3.33;;
17842;SDS011;69286;48.222;16.332;2023-09-07T13:04:05;5.80;;;3.40;;
17842;SDS011;69286;48.222;16.332;2023-09-07T13:06:32;5.15;;;3.20;;
17842;SDS011;69286;48.222;16.332;2023-09-07T13:08:59;5.25;;;3.70;;
17842;SDS011;69286;48.222;16.332;2023-09-07T13:11:26;7.70;;;3.47;;
17842;SDS011;69286;48.222;16.332;2023-09-07T13:13:53;5.50;;;3.30;;
17842;SDS011;69286;48.222;16.332;2023-09-07T13:16:21;7.28;;;3.80;;
17842;SDS011;69286;48.222;16.332;2023-09-07T13:18:48;4.90;;;3.55;;
17842;SDS011;69286;48.222;16.332;2023-09-07T13:21:15;7.82;;;3.70;;
17842;SDS011;69286;48.222;16.332;2023-09-07T13:23:42;7.88;;;3.75;;
17842;SDS011;69286;48.222;16.332;2023-09-07T13:26:11;10.48;;;4.22;;
17842;SDS011;69286;48.222;16.332;2023-09-07T13:28:38;6.55;;;3.45;;
17842;SDS011;69286;48.222;16.332;2023-09-07T13:31:06;5.75;;;3.58;;
17842;SDS011;69286;48.222;16.332;2023-09-07T13:33:34;6.72;;;3.88;;
17842;SDS011;69286;48.222;16.332;2023-09-07T13:36:01;4.82;;;3.85;;
17842;SDS011;69286;48.222;16.332;2023-09-07T13:38:28;6.55;;;3.65;;
17842;SDS011;69286;48.222;16.332;2023-09-07T13:40:55;5.15;;;3.53;;
17842;SDS011;69286;48.222;16.332;2023-09-07T13:43:22;6.57;;;3.55;;
17842;SDS011;69286;48.222;16.332;2023-09-07T13:45:49;6.65;;;3.75;;
17842;SDS011;69286;48.222;16.332;2023-09-07T13:48:16;9.88;;;3.88;;
17842;SDS011;69286;48.222;16.332;2023-09-07T13:50:44;4.28;;;3.22;;
17842;SDS011;69286;48.222;16.332;2023-09-07T13:53:12;8.73;;;3.40;;
17842;SDS011;69286;48.222;16.332;2023-09-07T13:55:39;4.50;;;3.28;;
17842;SDS011;69286;48.222;16.332;2023-09-07T13:58:09;10.02;;;3.70;;
17842;SDS011;69286;48.222;16.332;2023-09-07T14:00:36;7.95;;;3.33;;
17842;SDS011;69286;48.222;16.332;2023-09-07T14:03:04;8.15;;;3.80;;
17842;SDS011;69286;48.222;16.332;2023-09-07T14:05:30;7.55;;;3.75;;
17842;SDS011;69286;48.222;16.332;2023-09-07T14:07:59;10.43;;;3.30;;
17842;SDS011;69286;48.222;16.332;2023-09-07T14:10:26;6.88;;;3.83;;
17842;SDS011;69286;48.222;16.332;2023-09-07T14:12:53;7.63;;;3.20;;
17842;SDS011;69286;48.222;16.332;2023-09-07T14:15:20;4.80;;;3.35;;
17842;SDS011;69286;48.222;16.332;2023-09-07T14:17:47;7.13;;;3.75;;
17842;SDS011;69286;48.222;16.332;2023-09-07T14:20:14;13.45;;;3.53;;
17842;SDS011;69286;48.222;16.332;2023-09-07T14:22:41;7.07;;;3.40;;
17842;SDS011;69286;48.222;16.332;2023-09-07T14:25:09;7.32;;;3.63;;
17842;SDS011;69286;48.222;16.332;2023-09-07T14:27:36;9.98;;;3.80;;
17842;SDS011;69286;48.222;16.332;2023-09-07T14:30:04;11.02;;;3.45;;
17842;SDS011;69286;48.222;16.332;2023-09-07T14:32:31;10.80;;;4.15;;
17842;SDS011;69286;48.222;16.332;2023-09-07T14:34:58;5.18;;;3.40;;